DAUIDAAT

Guest
Details From DAUI - IN SALAH
To DAAT - TAMANRASSET
Flight Number -
Tags generated
Created
Modified
Stats Distance 313 nm / 580 km
Max Altitude 9,500 ft / 2,896 m
Waypoints 4
Social Downloads 0
Likes 0
Share VATSIM

Download

Looking for another format? Having issues loading an existing format? Contact us
Advertisement - Login to hide

Notes

Basic altitude profile: - Ascent Rate: 2500ft/min - Ascent Speed: 250kts - Cruise Altitude: 35000ft - Cruise Speed: 420kts - Descent Rate: 1500ft/min - Descent Speed: 250kts Options: - Use NATs: yes - Use PACOTS: yes - Use low airways: yes - Use high airways: yes

Route

DAUI NSL J62 TMS DAAT

ID Type Via Altitude Latitude Longitude Leg Dist Tot Dist Heading (true) Name
O DAUI APT - 0 ft / 0 m 27.25102˚ 2.51202˚ - 0 nm - IN SALAH
NSL VOR - 400 ft / 122 m 27.23667˚ 2.49250˚ 1 nm 1 nm 230° / 230° IN SALAH VOR-DME
TMS VOR J62 (AWY-LO) 9,500 ft / 2,896 m 22.84278˚ 5.46472˚ 309 nm 310 nm 148° / 149° TAMANRASSET VOR-DME
O DAAT APT - 0 ft / 0 m 22.81038˚ 5.44440˚ 2 nm 313 nm 210° / 210° TAMANRASSET

Altitude Profile

Advertisement - Login to hide

Weather


0- 5 10 15 20 25 30 35+ Temperature / ° C

Clouds and Precipitation
Forecast for 2017-12-16 12:00 UTC. Updated 16 minutes ago

Ground ~20,000 ft ~40,000 ft Winds

DAUI

Details ICAO DAUI (INZ)
Name IN SALAH
Region Algeria
Timezone Africa/Algiers (UTC+1.0)
Stats Elevation 896 ft / 273 m (AMSL)
Location 27.251021° 2.512018°
Runways 1
Magnetic Variation 0.442° E

METAR

Not found

TAF

TAF DAUI 160500Z 1606/1706 32008KT CAVOK

Decode

Departure Runways

ID Width Length Bearing (true) Bearing (mag) Surface Threshold Offset Overrun Length
05 148 ft / 45 m 9,827 ft / 2,995 m 50.81° 50.37° Asphalt 0 ft / 0 m 150 ft / 46 m
23 148 ft / 45 m 9,827 ft / 2,995 m 230.82° 230.38° Asphalt 0 ft / 0 m 150 ft / 46 m

DAAT

Details ICAO DAAT (TMR)
Name TAMANRASSET
Region Algeria
Timezone Africa/Algiers (UTC+1.0)
Stats Elevation 4,518 ft / 1,377 m (AMSL)
Location 22.810384° 5.444403°
Runways 2
Magnetic Variation 0.601° E

METAR

DAAT 160730Z 00000KT 9999 SCT046 SCT100 13/01 Q1021

Decode

TAF

TAF DAAT 160500Z 1606/1706 08010KT 9999 SCT046 SCT100 BECMG 1609/1612 22012KT

Decode

Destination Runways

ID Width Length Bearing (true) Bearing (mag) Surface Threshold Offset Overrun Length
02 148 ft / 45 m 11,884 ft / 3,622 m 22.21° 21.61° Asphalt 0 ft / 0 m 0 ft / 0 m
08 148 ft / 45 m 10,169 ft / 3,099 m 81.74° 81.14° Asphalt 0 ft / 0 m 0 ft / 0 m
20 148 ft / 45 m 11,884 ft / 3,622 m 202.22° 201.62° Asphalt 0 ft / 0 m 0 ft / 0 m
26 148 ft / 45 m 10,169 ft / 3,099 m 261.75° 261.15° Asphalt 0 ft / 0 m 0 ft / 0 m

Popular Alternatives